Time;durP1;ratioP1;P1;durP2;ratioP2;P2;SDS_P1;SDS_P2;PMS_P1;PMS_P2;Temp;Humidity;BMP_temperature;BMP_pressure;BME280_temperature;BME280_humidity;BME280_pressure;Samples;Min_cycle;Max_cycle;Signal;HPM_P1;HPM_P2
2021/12/28 00:01:35;;;;;;;11.18;5.43;;;9.40;99.90;;;8.15;100.00;98613.03;4961223;28;20112;-86
2021/12/28 00:04:04;;;;;;;7.43;4.82;;;9.40;99.90;;;8.13;100.00;98608.88;4959870;28;20051;-86
2021/12/28 00:06:32;;;;;;;7.75;4.65;;;9.40;99.90;;;8.12;100.00;98613.47;4959364;28;20054;-86
2021/12/28 00:08:59;;;;;;;9.30;4.50;;;9.40;99.90;;;8.10;100.00;98615.56;4960921;28;20071;-86
2021/12/28 00:11:26;;;;;;;10.38;4.47;;;9.40;99.90;;;8.12;100.00;98618.88;4960335;28;20886;-86
2021/12/28 00:14:00;;;;;;;9.27;4.68;;;9.40;99.90;;;8.14;100.00;98608.66;4961284;28;20043;-86
2021/12/28 00:17:58;;;;;;;7.35;3.90;;;9.40;99.90;;;8.15;100.00;98599.50;4961124;28;20175;-87
2021/12/28 00:19:22;;;;;;;7.05;3.72;;;9.40;99.90;;;8.13;100.00;98596.19;4960989;28;20047;-87
2021/12/28 00:21:50;;;;;;;6.85;3.97;;;9.40;99.90;;;8.12;100.00;98591.78;4960728;28;20054;-87
2021/12/28 00:24:17;;;;;;;8.20;3.80;;;9.40;99.90;;;8.14;100.00;98591.59;4943695;28;20039;-86
2021/12/28 00:26:44;;;;;;;7.00;4.15;;;9.40;99.90;;;8.13;100.00;98598.88;4958734;28;20137;-86
2021/12/28 00:29:12;;;;;;;6.82;3.53;;;9.40;99.90;;;8.09;100.00;98589.53;4960862;28;20079;-86
2021/12/28 00:31:39;;;;;;;6.32;3.47;;;9.40;99.90;;;8.05;100.00;98588.28;4942501;28;20680;-87
2021/12/28 00:34:06;;;;;;;8.48;3.50;;;9.40;99.90;;;8.03;100.00;98585.81;4960970;28;20035;-86
2021/12/28 00:39:26;;;;;;;8.00;3.25;;;9.30;99.90;;;7.98;100.00;98579.38;5015388;22;20065;-83
2021/12/28 00:41:53;;;;;;;6.15;3.35;;;9.30;99.90;;;7.97;100.00;98573.09;4998815;28;20062;-82
2021/12/28 00:44:21;;;;;;;6.45;3.08;;;9.30;99.90;;;7.98;100.00;98573.94;4998777;28;20590;-83
2021/12/28 00:46:48;;;;;;;7.60;3.50;;;9.30;99.90;;;7.98;100.00;98568.53;4981356;28;20153;-83
2021/12/28 00:49:15;;;;;;;6.45;3.33;;;9.20;99.90;;;7.95;100.00;98556.25;4999418;28;20069;-83
2021/12/28 00:51:45;;;;;;;8.27;3.67;;;9.20;99.90;;;7.88;100.00;98552.75;4998880;28;20498;-83
2021/12/28 00:54:14;;;;;;;6.45;2.97;;;9.20;99.90;;;7.87;100.00;98550.25;4996888;28;20418;-83
2021/12/28 00:56:42;;;;;;;9.30;3.20;;;9.10;99.90;;;7.84;100.00;98554.19;4999475;28;21069;-83
2021/12/28 00:59:12;;;;;;;10.32;4.10;;;9.10;99.90;;;7.80;100.00;98553.81;4981678;28;20805;-82
2021/12/28 01:01:42;;;;;;;7.38;3.40;;;9.10;99.90;;;7.76;100.00;98555.28;4998877;28;20037;-82
2021/12/28 01:04:11;;;;;;;6.68;3.40;;;9.00;99.90;;;7.73;100.00;98549.47;4999626;28;20068;-82
2021/12/28 01:06:38;;;;;;;9.63;3.70;;;9.00;99.90;;;7.70;100.00;98550.72;4998457;28;20149;-83
2021/12/28 01:09:06;;;;;;;8.20;3.40;;;9.00;99.90;;;7.68;100.00;98547.41;4999049;28;20081;-82
2021/12/28 01:11:33;;;;;;;8.73;3.45;;;9.00;99.90;;;7.66;100.00;98543.25;4998387;28;20960;-82
2021/12/28 01:14:02;;;;;;;8.25;3.40;;;8.90;99.90;;;7.64;100.00;98535.34;4998618;28;20081;-83
2021/12/28 01:16:29;;;;;;;8.90;3.10;;;8.90;99.90;;;7.61;100.00;98542.00;4997768;28;20045;-82
2021/12/28 01:18:57;;;;;;;8.45;3.67;;;8.90;99.90;;;7.58;100.00;98536.22;4997789;28;20133;-82
2021/12/28 01:21:24;;;;;;;9.77;3.83;;;8.90;99.90;;;7.58;100.00;98542.47;4997720;28;20122;-82
2021/12/28 01:23:51;;;;;;;8.20;3.78;;;8.90;99.90;;;7.56;100.00;98541.00;4998864;28;20046;-82
2021/12/28 01:26:18;;;;;;;12.20;3.20;;;8.80;99.90;;;7.53;100.00;98536.03;4998881;28;20133;-82
2021/12/28 01:28:46;;;;;;;10.10;3.35;;;8.80;99.90;;;7.52;100.00;98545.16;4997315;28;20081;-82
2021/12/28 01:31:14;;;;;;;11.02;4.00;;;8.80;99.90;;;7.50;100.00;98534.59;4998692;28;20045;-83
2021/12/28 01:33:42;;;;;;;10.70;3.53;;;8.80;99.90;;;7.51;100.00;98535.41;4998474;28;20037;-82
2021/12/28 01:36:09;;;;;;;10.45;3.92;;;8.80;99.90;;;7.50;100.00;98540.00;4998308;28;20050;-82
2021/12/28 01:38:36;;;;;;;9.82;3.63;;;8.80;99.90;;;7.50;100.00;98544.56;4997645;28;20042;-82
2021/12/28 01:41:05;;;;;;;11.45;3.33;;;8.80;99.90;;;7.50;100.00;98533.72;4997893;28;20045;-82
2021/12/28 01:43:33;;;;;;;11.25;3.20;;;8.80;99.90;;;7.50;100.00;98533.72;4998064;28;20054;-82
2021/12/28 01:46:02;;;;;;;13.02;3.47;;;8.80;99.90;;;7.47;100.00;98537.69;4997932;28;20378;-82
2021/12/28 01:48:34;;;;;;;11.77;3.72;;;8.80;99.90;;;7.47;100.00;98539.59;4998351;28;20061;-82
2021/12/28 01:51:06;;;;;;;14.77;3.20;;;9.00;99.90;;;7.44;100.00;98541.69;4998477;28;20069;-82
2021/12/28 01:53:35;;;;;;;14.38;3.97;;;8.70;99.90;;;7.41;100.00;98536.69;4999075;28;20129;-82
2021/12/28 01:56:07;;;;;;;11.18;3.22;;;8.70;99.90;;;7.40;100.00;98532.28;4998657;28;20117;-82
2021/12/28 01:58:34;;;;;;;10.40;3.58;;;8.70;99.90;;;7.40;100.00;98526.88;4997625;28;20116;-82
2021/12/28 02:01:03;;;;;;;12.00;3.42;;;8.70;99.90;;;7.39;100.00;98527.13;4998322;28;20039;-82
2021/12/28 02:03:34;;;;;;;17.45;3.83;;;8.70;99.90;;;7.37;100.00;98521.91;4997784;28;20088;-82
2021/12/28 02:06:01;;;;;;;18.27;4.05;;;8.70;99.90;;;7.40;100.00;98521.47;4997798;28;20069;-82
2021/12/28 02:08:29;;;;;;;10.38;3.90;;;8.70;99.90;;;7.43;100.00;98528.34;4997931;28;20050;-82
2021/12/28 02:10:58;;;;;;;12.15;3.40;;;8.70;99.90;;;7.47;100.00;98523.34;4997550;28;20080;-82
2021/12/28 02:13:27;;;;;;;16.10;4.15;;;8.80;99.90;;;7.48;100.00;98519.59;4998478;28;20134;-82
2021/12/28 02:15:57;;;;;;;13.57;2.97;;;8.80;99.90;;;7.50;100.00;98518.34;4980634;28;20141;-82
2021/12/28 02:18:26;;;;;;;13.23;4.20;;;8.80;99.90;;;7.53;100.00;98522.50;4998359;28;20399;-82
2021/12/28 02:20:57;;;;;;;11.93;3.58;;;8.80;99.90;;;7.53;100.00;98511.66;4998081;28;20073;-82
2021/12/28 02:23:25;;;;;;;15.63;3.72;;;8.80;99.90;;;7.57;100.00;98511.00;4998152;28;20042;-82
2021/12/28 02:25:53;;;;;;;14.50;3.50;;;8.90;99.90;;;7.57;100.00;98512.88;4997515;28;20038;-82
2021/12/28 02:28:21;;;;;;;15.27;3.60;;;8.90;99.90;;;7.60;100.00;98513.28;4997878;28;20085;-82
2021/12/28 02:30:53;;;;;;;14.13;3.58;;;9.00;99.90;;;7.63;100.00;98503.91;4997401;28;20566;-82
2021/12/28 02:33:23;;;;;;;14.80;3.45;;;9.10;99.90;;;7.64;100.00;98508.28;4997510;28;20582;-82
2021/12/28 02:35:51;;;;;;;14.32;3.65;;;8.90;99.90;;;7.69;100.00;98497.66;4997834;28;20409;-82
2021/12/28 02:38:20;;;;;;;16.55;3.30;;;9.00;99.90;;;7.76;100.00;98501.13;4997225;28;20050;-82
2021/12/28 02:40:47;;;;;;;19.40;3.65;;;9.00;99.90;;;7.74;100.00;98491.56;4998116;28;20122;-82
2021/12/28 02:43:17;;;;;;;19.02;3.42;;;9.10;99.90;;;7.79;100.00;98498.00;5001128;28;20128;-82
2021/12/28 02:45:52;;;;;;;17.00;3.42;;;9.10;99.90;;;7.80;100.00;98491.53;5001020;28;20649;-82
2021/12/28 02:48:20;;;;;;;20.15;3.83;;;9.10;99.90;;;7.80;100.00;98483.41;5000183;28;20128;-82
2021/12/28 02:50:50;;;;;;;17.15;3.40;;;9.10;99.90;;;7.81;100.00;98487.78;5001800;28;20129;-82
2021/12/28 02:53:20;;;;;;;15.68;3.40;;;9.10;99.90;;;7.82;100.00;98480.47;5001110;28;20049;-82
2021/12/28 02:55:49;;;;;;;20.90;3.55;;;9.30;99.90;;;7.87;100.00;98482.56;4998532;28;20117;-82
2021/12/28 02:58:30;;;;;;;19.27;4.30;;;9.20;99.90;;;7.88;100.00;98476.06;5000819;28;20136;-82
2021/12/28 03:01:04;;;;;;;17.23;3.47;;;9.20;99.90;;;7.87;100.00;98479.84;4983800;28;20108;-82
2021/12/28 03:03:33;;;;;;;20.80;3.88;;;9.20;99.90;;;7.87;100.00;98477.13;5000726;28;20851;-82
2021/12/28 03:06:04;;;;;;;20.88;4.72;;;9.30;99.90;;;7.88;100.00;98465.25;5000726;28;20129;-82
2021/12/28 03:08:36;;;;;;;21.77;4.15;;;9.30;99.90;;;7.91;100.00;98472.94;4982994;28;20156;-82
2021/12/28 03:11:05;;;;;;;19.27;4.47;;;9.30;99.90;;;7.91;100.00;98471.06;4999224;28;20120;-82
2021/12/28 03:13:37;;;;;;;19.52;4.03;;;9.30;99.90;;;7.93;100.00;98468.13;5000853;28;20057;-82
2021/12/28 03:16:05;;;;;;;22.80;3.78;;;9.30;99.90;;;7.92;100.00;98461.91;5000840;28;20124;-82
2021/12/28 03:18:32;;;;;;;26.30;4.90;;;9.30;99.90;;;7.93;100.00;98462.72;5000593;28;20050;-82
2021/12/28 03:21:00;;;;;;;21.60;3.53;;;9.30;99.90;;;7.93;100.00;98468.13;5000683;28;20151;-82
2021/12/28 03:23:29;;;;;;;25.48;4.32;;;9.30;99.90;;;7.97;100.00;98458.53;5000623;28;20212;-82
2021/12/28 03:25:58;;;;;;;20.38;4.57;;;9.30;99.90;;;7.98;100.00;98454.78;4983157;28;20475;-82
2021/12/28 03:28:28;;;;;;;25.85;4.88;;;9.30;99.90;;;7.97;100.00;98450.38;5000160;28;20502;-82
2021/12/28 03:31:00;;;;;;;20.85;4.45;;;9.30;99.90;;;7.95;100.00;98450.59;5000369;28;20065;-82
2021/12/28 03:33:35;;;;;;;20.17;3.83;;;9.30;99.90;;;7.98;100.00;98439.34;5000944;28;20056;-82
2021/12/28 03:36:02;;;;;;;23.42;4.57;;;9.30;99.90;;;7.98;100.00;98446.66;5000968;28;20089;-82
2021/12/28 03:38:30;;;;;;;21.02;4.60;;;9.40;99.90;;;7.99;100.00;98442.88;4999569;28;20046;-82
2021/12/28 03:41:00;;;;;;;20.05;4.00;;;9.30;99.90;;;7.99;100.00;98434.75;5000437;28;20073;-83
2021/12/28 03:43:27;;;;;;;19.85;4.03;;;9.40;99.90;;;8.00;100.00;98433.72;5000547;28;20108;-82
2021/12/28 03:45:54;;;;;;;22.33;4.13;;;9.30;99.90;;;8.01;100.00;98432.66;5000562;28;20230;-82
2021/12/28 03:48:22;;;;;;;19.92;4.25;;;9.40;99.90;;;8.01;100.00;98421.81;4999975;28;20050;-82
2021/12/28 03:50:49;;;;;;;23.25;4.38;;;9.40;99.90;;;8.01;100.00;98421.81;5000372;28;20122;-82
2021/12/28 03:53:16;;;;;;;30.33;4.60;;;9.40;99.90;;;8.02;100.00;98421.59;4998965;28;20160;-82
2021/12/28 03:55:43;;;;;;;27.58;4.78;;;9.40;99.90;;;8.03;100.00;98417.84;5000159;28;20125;-82
2021/12/28 03:58:12;;;;;;;23.92;4.28;;;9.40;99.90;;;8.04;100.00;98424.09;5000100;28;20042;-82
2021/12/28 04:00:45;;;;;;;19.83;4.30;;;9.40;99.90;;;8.06;100.00;98415.75;5000304;28;20070;-82
2021/12/28 04:03:13;;;;;;;16.63;3.40;;;9.40;99.90;;;8.07;100.00;98425.53;5000501;28;20073;-82
2021/12/28 04:05:43;;;;;;;24.33;4.40;;;9.40;99.90;;;8.04;100.00;98424.09;5000501;28;20095;-82
2021/12/28 04:08:11;;;;;;;20.10;4.40;;;9.40;99.90;;;8.01;100.00;98413.69;4999711;28;20053;-82
2021/12/28 04:10:51;;;;;;;28.60;4.53;;;9.40;99.90;;;8.04;100.00;98418.69;4999414;28;20046;-82
2021/12/28 04:13:21;;;;;;;27.77;4.63;;;9.40;99.90;;;8.06;100.00;98423.88;4999417;28;20483;-82
2021/12/28 04:15:49;;;;;;;21.85;3.80;;;9.40;99.90;;;8.06;100.00;98403.03;5000490;28;20129;-82
2021/12/28 04:18:18;;;;;;;25.50;4.60;;;9.40;99.90;;;8.08;100.00;98400.94;4999400;28;20120;-82
2021/12/28 04:20:46;;;;;;;21.80;4.32;;;9.40;99.90;;;8.10;100.00;98406.94;4999453;28;20722;-82
2021/12/28 04:23:14;;;;;;;20.02;4.25;;;9.40;99.90;;;8.12;100.00;98406.72;4999743;28;20499;-82
2021/12/28 04:25:41;;;;;;;22.80;3.97;;;9.40;99.90;;;8.13;100.00;98409.22;4999490;28;20081;-82
2021/12/28 04:28:08;;;;;;;22.55;4.28;;;9.40;99.90;;;8.15;100.00;98404.41;4981999;28;20137;-82
2021/12/28 04:30:37;;;;;;;23.38;3.75;;;9.50;99.90;;;8.16;100.00;98403.34;4998893;28;20132;-82
2021/12/28 04:33:04;;;;;;;24.85;3.90;;;9.50;99.90;;;8.13;100.00;98392.97;4999689;28;20076;-82
2021/12/28 04:35:32;;;;;;;26.17;4.40;;;9.50;99.90;;;8.17;100.00;98390.66;5000039;28;20046;-82
2021/12/28 04:37:59;;;;;;;24.55;4.05;;;9.50;99.90;;;8.20;100.00;98396.44;4982067;28;20148;-82
2021/12/28 04:40:27;;;;;;;25.23;4.75;;;9.50;99.90;;;8.23;100.00;98382.44;4998954;28;20126;-82
2021/12/28 04:42:54;;;;;;;20.65;3.80;;;9.50;99.90;;;8.26;100.00;98380.34;4981538;28;20057;-82
2021/12/28 04:45:21;;;;;;;22.70;4.28;;;9.60;99.90;;;8.31;100.00;98377.81;5000128;28;20037;-82
2021/12/28 04:47:50;;;;;;;30.00;5.03;;;9.60;99.90;;;8.31;100.00;98364.25;4995071;28;20137;-82
2021/12/28 04:50:17;;;;;;;18.88;3.75;;;9.70;99.90;;;8.30;100.00;98365.31;4990116;28;20096;-82
2021/12/28 04:52:45;;;;;;;22.08;3.53;;;9.60;99.90;;;8.28;100.00;98362.84;4990080;28;20042;-82
2021/12/28 04:55:18;;;;;;;17.40;3.80;;;9.60;99.90;;;8.27;100.00;98371.19;4971004;28;20042;-82
2021/12/28 04:57:47;;;;;;;21.17;3.95;;;9.60;99.90;;;8.26;100.00;98369.50;4970960;28;20043;-83
2021/12/28 05:00:21;;;;;;;22.60;3.67;;;9.60;99.90;;;8.23;100.00;98365.38;4970987;28;20474;-82
2021/12/28 05:02:50;;;;;;;20.33;3.97;;;9.60;99.90;;;8.22;100.00;98355.56;4952806;28;20050;-82
2021/12/28 05:05:18;;;;;;;26.50;3.83;;;9.60;99.90;;;8.23;100.00;98359.97;4970557;28;20054;-82
2021/12/28 05:07:45;;;;;;;28.65;4.95;;;9.60;99.90;;;8.21;100.00;98362.88;4970724;28;20053;-82
2021/12/28 05:10:12;;;;;;;24.63;3.85;;;9.60;99.90;;;8.22;100.00;98364.56;4970735;28;20078;-82
2021/12/28 05:12:40;;;;;;;17.45;3.40;;;9.60;99.90;;;8.25;100.00;98354.31;4970300;28;20122;-82
2021/12/28 05:15:10;;;;;;;22.20;3.60;;;9.60;99.90;;;8.28;100.00;98353.84;4970712;28;20042;-82
2021/12/28 05:17:38;;;;;;;21.25;3.70;;;9.60;99.90;;;8.28;100.00;98352.00;4970652;28;20042;-82
2021/12/28 05:20:08;;;;;;;22.35;5.00;;;9.60;99.90;;;8.31;100.00;98356.13;4970567;28;20049;-83
2021/12/28 05:22:36;;;;;;;24.27;4.38;;;9.60;99.90;;;8.32;100.00;98352.34;4970337;28;20128;-82
2021/12/28 05:25:05;;;;;;;19.98;3.67;;;9.60;99.90;;;8.30;100.00;98349.03;4970555;28;20942;-82
2021/12/28 05:27:32;;;;;;;23.75;3.30;;;9.60;99.90;;;8.30;100.00;98357.16;4970581;28;20066;-82
2021/12/28 05:30:00;;;;;;;21.05;3.90;;;9.60;99.90;;;8.30;100.00;98359.88;4970469;28;20050;-82
2021/12/28 05:32:27;;;;;;;18.63;3.28;;;9.60;99.90;;;8.28;100.00;98353.84;4970195;28;20134;-82
2021/12/28 05:34:54;;;;;;;13.45;3.28;;;9.60;99.90;;;8.27;100.00;98349.50;4970149;28;20078;-82
2021/12/28 05:37:23;;;;;;;13.65;3.33;;;9.60;99.90;;;8.23;100.00;98341.00;4970161;28;20419;-82
2021/12/28 05:39:50;;;;;;;18.52;3.60;;;9.60;99.90;;;8.22;100.00;98332.03;4955559;28;20133;-82
2021/12/28 05:42:17;;;;;;;23.05;3.53;;;9.60;99.90;;;8.21;100.00;98338.50;4989362;28;20070;-82
2021/12/28 05:44:45;;;;;;;15.77;3.38;;;9.60;99.90;;;8.19;100.00;98335.19;4989545;28;20125;-82
2021/12/28 05:47:12;;;;;;;20.40;4.05;;;9.60;99.90;;;8.19;100.00;98332.47;4988937;28;20121;-82
2021/12/28 05:49:39;;;;;;;18.25;3.67;;;9.60;99.90;;;8.19;100.00;98321.63;4989621;28;20695;-82
2021/12/28 05:52:07;;;;;;;19.52;3.85;;;9.50;99.90;;;8.18;100.00;98330.81;4989203;28;20046;-82
2021/12/28 05:54:36;;;;;;;20.08;3.72;;;9.50;99.90;;;8.19;100.00;98326.22;4989329;28;20073;-82
2021/12/28 05:57:05;;;;;;;18.23;3.70;;;9.50;99.90;;;8.20;100.00;98323.28;4991916;28;20050;-82
2021/12/28 05:59:32;;;;;;;14.30;3.15;;;9.50;99.90;;;8.20;100.00;98328.69;4989466;28;20050;-82
2021/12/28 06:01:59;;;;;;;18.27;3.60;;;9.50;99.90;;;8.18;100.00;98319.97;4988955;28;20050;-82
2021/12/28 06:04:27;;;;;;;18.08;3.53;;;9.50;99.90;;;8.19;100.00;98321.63;4989517;28;20125;-82
2021/12/28 06:06:54;;;;;;;13.95;3.13;;;9.50;99.90;;;8.18;100.00;98325.38;4989171;28;20144;-82
2021/12/28 06:09:21;;;;;;;18.35;4.15;;;9.60;99.90;;;8.21;100.00;98324.94;4989334;28;20150;-82
2021/12/28 06:11:50;;;;;;;13.35;3.42;;;9.60;99.90;;;8.22;100.00;98326.63;4988828;28;20145;-82
2021/12/28 06:14:18;;;;;;;11.85;3.25;;;9.60;99.90;;;8.22;100.00;98321.19;4989172;28;20125;-82
2021/12/28 06:16:45;;;;;;;16.85;3.25;;;9.60;99.90;;;8.26;100.00;98320.72;4993181;28;20093;-82
2021/12/28 06:19:12;;;;;;;16.42;3.28;;;9.60;99.90;;;8.27;100.00;98323.22;4993378;28;20410;-82
2021/12/28 06:21:41;;;;;;;19.23;4.35;;;9.60;99.90;;;8.29;100.00;98321.13;4991707;28;20058;-82
2021/12/28 06:24:09;;;;;;;11.82;2.72;;;9.60;99.90;;;8.30;100.00;98321.94;4993363;28;20142;-82
2021/12/28 06:26:37;;;;;;;15.18;3.88;;;9.60;99.90;;;8.33;100.00;98327.75;4993014;28;20117;-82
2021/12/28 06:29:07;;;;;;;13.45;3.55;;;9.60;99.90;;;8.34;100.00;98317.72;4993325;28;20147;-82
2021/12/28 06:31:35;;;;;;;16.13;3.92;;;9.60;99.90;;;8.33;100.00;98322.31;4992755;28;20038;-82
2021/12/28 06:34:07;;;;;;;15.40;3.85;;;9.60;99.90;;;8.34;100.00;98312.31;4993224;28;20078;-82
2021/12/28 06:36:34;;;;;;;12.38;3.67;;;9.70;99.90;;;8.37;100.00;98322.72;4975456;28;20594;-82
2021/12/28 06:39:02;;;;;;;12.93;3.50;;;9.70;99.90;;;8.37;100.00;98309.16;5023238;22;20045;-86
2021/12/28 06:41:29;;;;;;;10.77;3.53;;;9.70;99.90;;;8.38;100.00;98306.22;5027905;28;20406;-85
2021/12/28 06:43:57;;;;;;;13.18;4.15;;;9.70;99.90;;;8.40;100.00;98303.28;5032339;28;20041;-86
2021/12/28 06:46:25;;;;;;;10.35;3.20;;;9.70;99.90;;;8.40;100.00;98304.13;5032152;28;20049;-85
2021/12/28 06:48:52;;;;;;;11.07;3.30;;;9.70;99.90;;;8.40;100.00;98300.59;5032144;28;20120;-86
2021/12/28 06:51:20;;;;;;;9.63;3.03;;;9.80;99.90;;;8.38;100.00;98306.22;5031729;28;20128;-86
2021/12/28 06:53:47;;;;;;;9.00;3.03;;;9.70;99.90;;;8.36;100.00;98305.63;5031978;28;20058;-86
2021/12/28 06:56:15;;;;;;;11.82;3.20;;;9.70;99.90;;;8.34;100.00;98309.59;5032083;28;20110;-85
2021/12/28 06:58:42;;;;;;;14.32;3.38;;;9.70;99.90;;;8.34;100.00;98301.47;5031777;28;20107;-85
2021/12/28 07:01:10;;;;;;;11.07;3.60;;;9.70;99.90;;;8.31;100.00;98304.63;5031826;28;20041;-85
2021/12/28 07:03:39;;;;;;;10.45;3.15;;;9.70;99.90;;;8.31;100.00;98299.22;5031918;28;20502;-86
2021/12/28 07:06:07;;;;;;;13.48;3.85;;;9.70;99.90;;;8.28;100.00;98299.66;5032007;28;20041;-85
2021/12/28 07:08:35;;;;;;;12.15;3.20;;;9.70;99.90;;;8.25;100.00;98303.66;5031674;28;20116;-85
2021/12/28 07:11:02;;;;;;;11.35;3.42;;;9.60;99.90;;;8.23;100.00;98306.59;5031508;28;20056;-84
2021/12/28 07:13:29;;;;;;;12.73;3.13;;;9.60;99.90;;;8.23;100.00;98295.75;5031681;28;20140;-84
2021/12/28 07:15:56;;;;;;;9.57;3.08;;;9.50;99.90;;;8.25;100.00;98308.25;5031611;28;20509;-82
2021/12/28 07:18:24;;;;;;;12.90;3.33;;;9.60;99.90;;;8.26;100.00;98304.47;5031445;28;20500;-81
2021/12/28 07:20:53;;;;;;;10.50;3.25;;;9.60;99.90;;;8.27;100.00;98303.44;5031597;28;20124;-86
2021/12/28 07:23:20;;;;;;;12.02;3.17;;;9.60;99.90;;;8.28;100.00;98297.81;5032395;28;20068;-92
2021/12/28 07:25:49;;;;;;;7.35;2.78;;;9.60;99.90;;;8.32;100.00;98311.69;5031051;28;20048;-89
2021/12/28 07:28:17;;;;;;;9.10;2.80;;;9.60;99.90;;;8.29;100.00;98310.28;5013411;28;20449;-87
2021/12/28 07:30:44;;;;;;;19.63;3.42;;;9.60;99.90;;;8.29;100.00;98302.16;5031242;28;20091;-89
2021/12/28 07:33:11;;;;;;;8.70;3.05;;;9.60;99.90;;;8.31;100.00;98301.94;5031050;28;20494;-88
2021/12/28 07:35:39;;;;;;;9.55;2.72;;;9.60;99.90;;;8.31;100.00;98301.94;5013203;28;20041;-88
2021/12/28 07:38:21;;;;;;;9.70;3.00;;;9.70;99.90;;;8.32;100.00;98303.56;5013216;28;20051;-87
2021/12/28 07:40:49;;;;;;;9.55;2.47;;;9.70;99.90;;;8.29;100.00;98298.63;5030996;28;20053;-87
2021/12/28 07:43:16;;;;;;;11.73;2.90;;;9.60;99.90;;;8.26;100.00;98299.06;5030951;28;20038;-87
2021/12/28 07:45:44;;;;;;;8.77;2.58;;;9.60;99.90;;;8.22;100.00;98291.41;5030970;28;20073;-89
2021/12/28 07:48:13;;;;;;;9.18;2.50;;;9.60;99.90;;;8.25;100.00;98292.00;5029530;28;20123;-86
2021/12/28 07:50:40;;;;;;;6.13;1.98;;;9.70;99.90;;;8.21;100.00;98295.16;5030877;28;20154;-86
2021/12/28 07:56:22;;;;;;;11.63;2.30;;;9.70;99.90;;;8.27;100.00;98290.72;5025924;28;20052;-88
2021/12/28 07:58:49;;;;;;;7.90;2.17;;;9.70;99.90;;;8.29;100.00;98285.06;5029055;28;20455;-87
2021/12/28 08:01:17;;;;;;;11.82;2.28;;;9.70;99.90;;;8.30;100.00;98278.56;5026691;28;20045;-89
2021/12/28 08:03:46;;;;;;;11.52;2.72;;;9.70;99.90;;;8.26;100.00;98266.53;5027559;28;20088;-87
2021/12/28 08:06:16;;;;;;;6.18;1.70;;;9.70;99.90;;;8.22;100.00;98260.75;5026955;28;20121;-87
2021/12/28 08:08:48;;;;;;;10.27;1.80;;;9.60;99.90;;;8.25;100.00;98264.91;5011085;28;20053;-87
2021/12/28 08:11:15;;;;;;;;;;;9.70;99.90;;;8.26;100.00;98267.34;5028309;28;20045;-86
2021/12/28 08:13:42;;;;;;;7.78;1.98;;;9.70;99.90;;;8.28;100.00;98272.56;5029754;28;19921;-86
2021/12/28 08:16:09;;;;;;;6.47;1.80;;;9.70;99.90;;;8.25;100.00;98270.31;5025810;28;20041;-86
2021/12/28 08:18:37;;;;;;;6.68;1.90;;;9.70;99.90;;;8.25;100.00;98283.88;5027311;28;20133;-86
2021/12/28 08:21:06;;;;;;;7.50;2.25;;;9.60;99.90;;;8.23;100.00;98289.50;5028445;28;20045;-84
2021/12/28 08:23:33;;;;;;;4.28;1.40;;;9.60;99.90;;;8.25;100.00;98292.00;5027015;28;20049;-80
2021/12/28 08:26:02;;;;;;;11.00;1.90;;;9.60;99.90;;;8.23;100.00;98303.88;5029394;28;20048;-82
2021/12/28 08:28:29;;;;;;;4.70;1.98;;;9.60;99.90;;;8.27;100.00;98317.00;5026501;28;20045;-83
2021/12/28 08:30:57;;;;;;;4.32;1.42;;;9.60;99.90;;;8.30;100.00;98319.22;5029136;28;20046;-83
2021/12/28 08:33:26;;;;;;;6.38;1.73;;;9.60;99.90;;;8.34;100.00;98317.72;5029224;28;20065;-82
2021/12/28 08:35:53;;;;;;;9.32;2.00;;;9.70;99.90;;;8.39;100.00;98315.19;5027754;28;20521;-83
2021/12/28 08:38:20;;;;;;;4.95;1.42;;;9.70;99.90;;;8.44;100.00;98315.38;5028002;28;20111;-84
2021/12/28 08:40:48;;;;;;;4.75;1.60;;;9.80;99.90;;;8.50;100.00;98322.59;5029726;28;20069;-84
2021/12/28 08:43:17;;;;;;;6.63;2.20;;;9.80;99.90;;;8.53;100.00;98316.72;5029322;28;20095;-83
2021/12/28 08:45:44;;;;;;;8.32;2.00;;;9.80;99.90;;;8.54;100.00;98307.53;5029661;28;20075;-83
2021/12/28 08:48:12;;;;;;;5.15;2.05;;;9.80;99.90;;;8.57;100.00;98312.50;5029883;28;20041;-83
2021/12/28 08:50:42;;;;;;;5.20;1.70;;;9.90;99.90;;;8.60;100.00;98306.66;5029524;28;20107;-86
2021/12/28 08:53:11;;;;;;;5.93;1.63;;;9.90;99.90;;;8.63;100.00;98296.41;5029651;28;20041;-84
2021/12/28 08:55:40;;;;;;;4.45;1.67;;;9.90;99.90;;;8.67;100.00;98295.72;5029100;28;20052;-85
2021/12/28 08:58:08;;;;;;;6.03;1.70;;;10.00;99.90;;;8.72;100.00;98293.16;5011812;28;20104;-84
2021/12/28 09:00:38;;;;;;;5.40;1.63;;;10.00;99.90;;;8.73;100.00;98283.94;5012118;28;20050;-86
2021/12/28 09:03:06;;;;;;;5.03;1.53;;;10.00;99.90;;;8.79;100.00;98287.63;5029839;28;20045;-86
2021/12/28 09:05:37;;;;;;;8.05;2.20;;;10.10;99.90;;;8.85;100.00;98286.72;5029674;28;20489;-85
2021/12/28 09:08:08;;;;;;;4.85;1.30;;;10.10;99.90;;;8.86;100.00;98277.53;5028379;28;20053;-84
2021/12/28 09:10:36;;;;;;;;;;;10.10;99.90;;;8.87;100.00;98279.19;5029338;28;20054;-85
2021/12/28 09:13:04;;;;;;;6.43;2.05;;;10.20;99.90;;;8.82;100.00;98270.91;5029377;28;20075;-86
2021/12/28 09:15:32;;;;;;;4.65;1.60;;;10.20;99.90;;;8.80;100.00;98284.69;5029386;28;20088;-84
2021/12/28 09:18:01;;;;;;;5.53;1.70;;;10.20;99.90;;;8.79;100.00;98280.31;5029597;28;20122;-83
2021/12/28 09:20:28;;;;;;;6.10;1.52;;;10.20;99.90;;;8.83;100.00;98283.41;5029262;28;20037;-84
2021/12/28 09:22:56;;;;;;;8.18;1.70;;;10.20;99.90;;;8.86;100.00;98276.72;5029394;28;20068;-83
2021/12/28 09:25:24;;;;;;;3.97;1.40;;;10.20;99.90;;;8.86;100.00;98280.25;5026134;28;20494;-84
2021/12/28 09:27:52;;;;;;;6.90;1.65;;;10.30;99.90;;;8.84;100.00;98287.78;5015838;28;20123;-84
2021/12/28 09:30:20;;;;;;;5.68;1.65;;;10.20;99.90;;;8.86;100.00;98282.13;5028685;28;20045;-85
2021/12/28 09:32:48;;;;;;;6.18;2.08;;;10.30;99.90;;;8.88;100.00;98280.03;5027735;28;20084;-86
2021/12/28 09:35:17;;;;;;;6.07;1.90;;;10.30;99.90;;;8.91;100.00;98284.97;5028983;28;20080;-81
2021/12/28 09:37:45;;;;;;;4.88;1.50;;;10.30;99.90;;;8.98;100.00;98272.16;5011440;28;20049;-83
2021/12/28 09:40:14;;;;;;;3.47;1.20;;;10.30;99.90;;;9.07;100.00;98286.25;5028729;28;20103;-83
2021/12/28 09:42:42;;;;;;;7.95;1.90;;;10.30;99.90;;;9.13;100.00;98277.16;5028672;28;20045;-82
2021/12/28 09:45:13;;;;;;;6.50;1.80;;;10.40;99.90;;;9.17;100.00;98278.38;5028975;28;20057;-81
2021/12/28 09:47:42;;;;;;;5.78;1.60;;;10.50;99.90;;;9.23;100.00;98276.63;5028825;28;20045;-81
2021/12/28 09:50:14;;;;;;;5.53;1.67;;;10.50;99.90;;;9.29;100.00;98273.81;5028350;28;20056;-80
2021/12/28 09:52:43;;;;;;;3.22;1.42;;;10.50;99.90;;;9.35;100.00;98267.44;5028875;28;20862;-81
2021/12/28 09:55:13;;;;;;;3.58;1.35;;;10.60;99.90;;;9.41;100.00;98270.31;5007961;28;20572;-80
2021/12/28 09:57:41;;;;;;;4.90;1.70;;;10.60;99.90;;;9.44;100.00;98264.38;5028124;28;20037;-83
2021/12/28 10:00:11;;;;;;;6.75;1.70;;;10.70;99.90;;;9.45;100.00;98263.34;5028965;28;20474;-81
2021/12/28 10:02:38;;;;;;;8.05;1.42;;;10.70;99.90;;;9.46;100.00;98267.69;5007008;28;20057;-83
2021/12/28 10:05:10;;;;;;;2.78;1.05;;;10.70;99.90;;;9.47;100.00;98258.50;5009180;28;20053;-81
2021/12/28 10:07:45;;;;;;;6.68;1.23;;;10.70;99.90;;;9.47;100.00;98262.03;5009032;28;20499;-82
2021/12/28 10:10:14;;;;;;;6.45;1.70;;;10.70;99.90;;;9.47;100.00;98258.50;5009474;28;20056;-82
2021/12/28 10:12:44;;;;;;;8.35;1.90;;;10.70;99.90;;;9.46;100.00;98248.69;5008815;28;20443;-82
2021/12/28 10:15:16;;;;;;;5.50;1.77;;;10.80;99.90;;;9.46;100.00;98248.69;5009388;28;20421;-81
2021/12/28 10:17:49;;;;;;;3.88;1.20;;;10.70;99.90;;;9.46;100.00;98251.41;5008992;28;20084;-82
2021/12/28 10:20:21;;;;;;;2.95;1.30;;;10.80;99.90;;;9.44;100.00;98243.50;5009214;28;20050;-81
2021/12/28 10:22:53;;;;;;;4.22;1.75;;;10.80;99.90;;;9.43;100.00;98241.03;5009074;28;20092;-82
2021/12/28 10:25:24;;;;;;;5.47;1.50;;;10.80;99.90;;;9.45;100.00;98247.06;5009268;28;20050;-82
2021/12/28 10:27:53;;;;;;;;;;;10.70;99.90;;;9.41;100.00;98240.44;5009633;28;20121;-82
2021/12/28 10:30:24;;;;;;;3.05;1.30;;;10.70;99.90;;;9.38;100.00;98228.97;5009173;28;19987;-82
2021/12/28 10:32:54;;;;;;;4.00;1.35;;;10.70;99.90;;;9.38;100.00;98231.69;5008835;28;20046;-82
2021/12/28 10:35:24;;;;;;;5.38;1.60;;;10.70;99.90;;;9.38;100.00;98220.81;5009086;28;20181;-81